Wigston, United Kingdom
Current Conditions -  °F | °C
As of 2:20 AM on Thursday 18 Dec 2014 (Local Time) from EGNX Reporting Station
Light Rain Light Rain  
Wind Chill: 52°   Ceiling: 1200
Heat Index: 52°   Visibility: 6mi
Dew Point: 50°   Wind: 14mph
Humidity: 94%   Direction: 220°SW
Pressure: 29.71"   Gusts: NA
Location:  52.59°N, 1.1°W
Report Text: EGNX 180220Z 22012KT 9999 -RADZ FEW008 BKN012 11/10 Q1006
Loading
Personal Weather Stations






























Interactive Weather Map New forecast layout! Learn more

10-Day Weather Forecast

Advertisements
Track Severe Weather on mobile